Airfield :
LOGIN :

Register | Disclaimer

   EN    FR    IT 

 










Legend :    VFR   Marginal VFR   IFR   Intensive IFR   Very Intensive IFR
Visi :
Ceiling :
>= 8 km
>= 3000ft
5 to 8 km
1000 to 3000 ft
1500m to 5 km
500 to 1000 ft
800 to 1500m
200 to 500 ft
< 800m
< 200 ft
Symbols :   Thunderstorms  Fog  Heavy snow  Heavy precipitations  Wind > 20 kt
SIGMETs :     Misc.  Thunderstorms  Icing  Turbulence  Mountain Waves  Volcanic Ashes







- Airport Elevation : 112 ft
- IATA code : SVQ


LEZL - Sevilla San Pablo

CURRENT METAR :
  • 211130Z VRB02KT CAVOK 34/16 Q1015 NOSIG

EXPIRED METARs :
  • 211100Z 09001KT CAVOK 33/16 Q1015 NOSIG
  • 211030Z 08001KT CAVOK 33/17 Q1015 NOSIG
  • 211000Z 04001KT CAVOK 32/17 Q1016 NOSIG
  • 210930Z 01002KT CAVOK 30/18 Q1016 NOSIG
  • 210900Z VRB02KT CAVOK 30/18 Q1016 NOSIG

TAF TAF LEZL
Valid from the 21 at 09:00 until the 22 at 09:00 UTC


210800Z 2109/2209 VRB02KT CAVOK TX38/2116Z TN22/2206Z
BECMG 2116/2119 24010KT
BECMG 2122/2124 VRB02KT
No reported NOTAMs for that airfield.



MET'MAP, your aeronautical weather chart ! - Copyright ORBIFLY December 2007 - Disclaimer

ORBIFLY MET'MAP TEAM :

Programming & Development : Alexandra Zaïnal
Concept & Development : Baudouin d'Aumeries
Co-Development & Prog : Marc-Olivier Méhu
Technical & hardware support : Manuel Goepfert

Contact : metmap@orbifly.com




SOURCES & CREDITS :

   NOAA